KJMS

Jamestown Regional Airport

Jamestown, North Dakota, USA
METAR KJMS 242356Z AUTO 23012KT 10SM CLR 29/12 A2972 RMK AO2 SLP054 T02890122 10311 20278 56008
Observed Flight Rules
May-24 @ 23:56 UTC (an hour ago) Visual Flight Rules
Wind Visibility Clouds
230° at 12 knots 10 miles
  • Clear skies
Temperatures Readings
Current 29°C / 84°F
Dewpoint 12°C / 54°F
Humidity 35%
Altimeter 29.72" Hg
Pressure 1005.4 hPa
Elevation 455
METAR KJMS 242356Z AUTO 23012KT 10SM CLR 29/12 A2972 RMK AO2 SLP054 T02890122 10311 20278 56008
Observed Flight Rules
May-24 @ 23:56 UTC
(an hour ago)
VFR
Wind Visibility
230° at 12 knots 10 miles
Clouds
  • Clear skies
Temperature Dewpoint
29°C / 84°F 12°C / 54°F
Humidity Altimeter Pressure
35% 29.72" Hg 1005.4 hPa